Time;durP1;ratioP1;P1;durP2;ratioP2;P2;SDS_P1;SDS_P2;PMS_P1;PMS_P2;Temp;Humidity;BMP_temperature;BMP_pressure;BME280_temperature;BME280_humidity;BME280_pressure;Samples;Min_cycle;Max_cycle;Signal;HPM_P1;HPM_P2
2021/08/04 00:02:16;;;;;;;9.88;3.20;;;;;;;13.45;73.51;100258.47;5061409;28;20024;-65
2021/08/04 00:04:42;;;;;;;10.88;3.13;;;;;;;13.37;73.47;100247.38;5062658;28;20033;-65
2021/08/04 00:07:08;;;;;;;4.88;2.33;;;;;;;13.42;73.79;100252.50;5062774;28;20025;-65
2021/08/04 00:09:33;;;;;;;12.07;3.03;;;;;;;13.44;73.44;100266.34;5062604;28;20025;-65
2021/08/04 00:11:58;;;;;;;9.32;3.63;;;;;;;13.34;73.32;100256.13;5062546;28;20045;-65
2021/08/04 00:14:24;;;;;;;12.95;4.07;;;;;;;13.22;73.53;100253.78;5062848;28;20029;-65
2021/08/04 00:16:49;;;;;;;16.25;5.35;;;;;;;13.10;73.48;100255.75;5065891;28;20063;-65
2021/08/04 00:19:15;;;;;;;8.20;3.97;;;;;;;12.98;73.58;100262.09;5066677;28;20020;-65
2021/08/04 00:21:40;;;;;;;8.82;3.67;;;;;;;12.87;73.66;100256.25;5066147;28;20480;-65
2021/08/04 00:24:05;;;;;;;11.93;4.15;;;;;;;12.81;74.17;100264.19;5066221;28;20048;-65
2021/08/04 00:26:31;;;;;;;8.43;3.33;;;;;;;12.84;74.88;100264.13;5064872;28;20378;-65
2021/08/04 00:28:56;;;;;;;8.60;3.85;;;;;;;12.84;74.63;100249.34;5066110;28;20388;-65
2021/08/04 00:31:22;;;;;;;9.70;4.30;;;;;;;12.84;74.68;100259.75;5066093;28;20481;-65
2021/08/04 00:33:47;;;;;;;8.50;4.28;;;;;;;12.74;74.46;100251.31;5066011;28;20516;-65
2021/08/04 00:36:12;;;;;;;7.95;4.72;;;;;;;12.75;74.50;100258.22;5065985;28;20477;-64
2021/08/04 00:38:38;;;;;;;10.40;4.45;;;;;;;12.70;74.61;100262.66;5065877;28;20037;-64
2021/08/04 00:41:04;;;;;;;10.52;4.97;;;;;;;12.61;74.94;100253.28;5066087;28;20036;-65
2021/08/04 00:43:29;;;;;;;8.88;4.50;;;;;;;12.56;74.80;100254.25;5066030;28;20521;-65
2021/08/04 00:45:55;;;;;;;9.25;4.60;;;;;;;12.55;74.69;100266.44;5065838;28;20388;-65
2021/08/04 00:48:22;;;;;;;15.02;5.28;;;;;;;12.48;74.67;100257.88;5065730;28;20527;-65
2021/08/04 00:50:48;;;;;;;10.43;4.85;;;;;;;12.43;74.65;100269.25;5065603;28;20025;-65
2021/08/04 00:53:17;;;;;;;12.43;3.90;;;;;;;12.34;74.80;100260.72;5065622;28;20028;-65
2021/08/04 00:55:43;;;;;;;14.07;4.60;;;;;;;12.28;74.96;100266.03;5065693;28;20021;-65
2021/08/04 00:58:08;;;;;;;13.48;4.93;;;;;;;12.23;74.87;100266.13;5064080;28;20033;-65
2021/08/04 01:00:35;;;;;;;13.30;4.75;;;;;;;12.20;75.13;100262.72;5065684;28;20043;-65
2021/08/04 01:03:05;;;;;;;15.55;5.38;;;;;;;12.16;75.20;100271.47;5065421;28;20052;-65
2021/08/04 01:05:41;;;;;;;13.07;5.07;;;;;;;12.10;75.18;100272.41;5065210;28;20025;-65
2021/08/04 01:08:19;;;;;;;10.82;4.85;;;;;;;12.05;75.25;100279.41;5065471;28;20108;-65
2021/08/04 01:10:50;;;;;;;13.05;6.18;;;;;;;11.99;75.38;100286.44;5065571;28;20308;-65
2021/08/04 01:13:23;;;;;;;10.93;5.50;;;;;;;11.96;75.42;100283.91;5065537;28;20024;-65
2021/08/04 01:16:22;;;;;;;10.35;4.90;;;;;;;11.92;75.39;100283.97;5065550;28;20096;-65
2021/08/04 01:18:59;;;;;;;9.98;5.57;;;;;;;11.89;75.46;100292.66;5065484;28;20024;-65
2021/08/04 01:21:52;;;;;;;17.17;7.55;;;;;;;11.84;75.48;100291.88;5065081;28;20025;-65
2021/08/04 01:24:25;;;;;;;12.40;6.85;;;;;;;11.80;75.51;100291.09;5065155;28;20021;-65
2021/08/04 01:26:52;;;;;;;18.02;6.72;;;;;;;11.79;75.95;100286.75;5064126;28;20100;-65
2021/08/04 01:29:19;;;;;;;17.10;6.40;;;;;;;11.78;76.08;100285.03;5065042;28;20060;-65
2021/08/04 01:31:48;;;;;;;11.25;5.97;;;;;;;11.79;76.14;100286.75;5064866;28;20029;-65
2021/08/04 01:34:15;;;;;;;13.75;6.30;;;;;;;11.80;76.31;100288.47;5064961;28;20089;-66
2021/08/04 01:36:43;;;;;;;16.75;6.70;;;;;;;11.82;76.57;100289.28;5064486;28;20136;-66
2021/08/04 01:39:10;;;;;;;17.13;5.95;;;;;;;11.83;76.72;100285.81;5064856;28;20028;-66
2021/08/04 01:41:37;;;;;;;13.13;6.65;;;;;;;11.86;76.70;100279.72;5064843;28;20021;-66
2021/08/04 01:44:08;;;;;;;14.43;6.07;;;;;;;11.89;76.81;100285.72;5064725;28;20016;-66
2021/08/04 01:46:34;;;;;;;15.05;7.47;;;;;;;11.89;76.94;100284.84;5064941;28;20021;-66
2021/08/04 01:49:03;;;;;;;14.63;6.90;;;;;;;11.90;77.19;100281.41;5064797;28;20025;-66
2021/08/04 01:51:29;;;;;;;16.17;6.80;;;;;;;11.87;77.29;100284.88;5064449;28;20107;-66
2021/08/04 01:53:55;;;;;;;19.42;6.72;;;;;;;11.87;77.33;100287.47;5063092;28;20043;-66
2021/08/04 01:56:21;;;;;;;15.98;6.13;;;;;;;11.82;77.18;100280.66;5064390;28;20586;-66
2021/08/04 01:58:47;;;;;;;12.95;6.72;;;;;;;11.78;77.09;100279.84;5064411;28;20056;-66
2021/08/04 02:01:12;;;;;;;13.90;7.85;;;;;;;11.76;76.95;100279.00;5064253;28;20477;-66
2021/08/04 02:03:38;;;;;;;13.63;6.63;;;;;;;11.70;76.88;100286.88;5064294;28;20025;-66
2021/08/04 02:06:25;;;;;;;14.57;5.88;;;;;;;11.66;76.86;100278.28;5064148;28;20035;-66
2021/08/04 02:09:00;;;;;;;15.10;5.72;;;;;;;11.60;76.84;100276.63;5064358;28;20017;-66
2021/08/04 02:11:45;;;;;;;16.30;6.63;;;;;;;11.56;76.97;100276.69;5064256;28;20028;-66
2021/08/04 02:14:29;;;;;;;13.35;5.78;;;;;;;11.52;77.11;100276.75;5064262;28;20021;-66
2021/08/04 02:17:05;;;;;;;11.95;6.68;;;;;;;11.48;77.12;100276.81;5064023;28;20035;-66
2021/08/04 02:19:41;;;;;;;14.38;6.47;;;;;;;11.44;77.29;100277.75;5062567;28;20068;-66
2021/08/04 02:22:24;;;;;;;13.60;5.90;;;;;;;11.41;77.27;100281.22;5063983;28;20025;-67
2021/08/04 02:24:55;;;;;;;12.80;6.15;;;;;;;11.39;77.29;100277.78;5064051;28;20029;-66
2021/08/04 02:27:21;;;;;;;12.52;6.00;;;;;;;11.36;77.67;100275.22;5063919;28;20029;-66
2021/08/04 02:29:49;;;;;;;13.38;5.88;;;;;;;11.36;77.55;100281.28;5063938;28;20102;-66
2021/08/04 02:32:15;;;;;;;17.10;7.20;;;;;;;11.31;77.76;100282.25;5063754;28;20036;-65
2021/08/04 02:34:41;;;;;;;16.33;6.88;;;;;;;11.32;77.69;100289.16;5063948;28;20032;-66
2021/08/04 02:37:07;;;;;;;18.25;6.53;;;;;;;11.24;77.90;100279.75;5063493;28;20051;-65
2021/08/04 02:39:33;;;;;;;15.07;7.72;;;;;;;11.26;77.91;100282.31;5063574;28;20020;-65
2021/08/04 02:41:59;;;;;;;16.75;6.40;;;;;;;11.27;77.81;100289.22;5063576;28;20031;-65
2021/08/04 02:44:24;;;;;;;13.35;6.00;;;;;;;11.24;77.84;100291.84;5063591;28;20035;-65
2021/08/04 02:46:51;;;;;;;19.33;6.72;;;;;;;11.22;78.03;100278.00;5063664;28;20017;-65
2021/08/04 02:49:18;;;;;;;10.68;6.20;;;;;;;11.25;78.07;100286.63;5063433;28;20021;-65
2021/08/04 02:51:44;;;;;;;12.40;5.80;;;;;;;11.26;78.23;100295.31;5063350;28;20040;-66
2021/08/04 02:54:12;;;;;;;11.00;5.63;;;;;;;11.25;78.55;100288.38;5063422;28;20066;-65
2021/08/04 02:56:37;;;;;;;16.27;5.80;;;;;;;11.33;78.92;100286.53;5063220;28;20025;-66
2021/08/04 02:59:03;;;;;;;12.68;5.38;;;;;;;11.39;79.01;100290.78;5063114;28;20021;-65
2021/08/04 03:01:28;;;;;;;9.55;5.00;;;;;;;11.44;79.26;100288.97;5063307;28;20025;-66
2021/08/04 03:03:53;;;;;;;9.32;4.70;;;;;;;11.50;79.49;100293.25;5062393;28;20163;-66
2021/08/04 03:06:19;;;;;;;10.05;4.70;;;;;;;11.52;79.53;100291.47;5063419;28;20020;-66
2021/08/04 03:08:44;;;;;;;10.55;4.50;;;;;;;11.53;79.64;100295.81;5063493;28;20088;-66
2021/08/04 03:11:09;;;;;;;9.73;5.15;;;;;;;11.52;79.49;100294.06;5061956;28;20037;-66
2021/08/04 03:13:36;;;;;;;9.73;4.90;;;;;;;11.51;79.82;100297.56;5063198;28;20385;-66
2021/08/04 03:16:01;;;;;;;7.53;4.47;;;;;;;11.49;79.95;100299.31;5061932;28;20036;-66
2021/08/04 03:18:27;;;;;;;7.88;3.75;;;;;;;11.50;80.15;100293.25;5063238;28;20029;-66
2021/08/04 03:20:53;;;;;;;10.45;3.72;;;;;;;11.57;80.29;100294.88;5063124;28;20166;-65
2021/08/04 03:23:19;;;;;;;11.57;4.75;;;;;;;11.66;80.12;100293.91;5061698;28;20124;-66
2021/08/04 03:25:44;;;;;;;8.00;3.40;;;;;;;11.70;79.75;100294.69;5063145;28;20029;-66
2021/08/04 03:28:10;;;;;;;7.38;3.50;;;;;;;11.82;80.16;100304.91;5062289;28;20068;-66
2021/08/04 03:30:35;;;;;;;11.95;3.45;;;;;;;11.89;80.02;100295.25;5062587;28;20021;-65
2021/08/04 03:33:00;;;;;;;6.95;3.45;;;;;;;12.08;79.85;100300.19;5063054;28;20047;-65
2021/08/04 03:35:26;;;;;;;10.20;3.30;;;;;;;12.20;79.71;100299.16;5062970;28;20025;-65
2021/08/04 03:37:51;;;;;;;7.40;3.22;;;;;;;12.37;79.63;100299.72;5061650;28;20048;-65
2021/08/04 03:40:17;;;;;;;5.40;2.80;;;;;;;12.50;79.63;100286.47;5062994;28;20032;-66
2021/08/04 03:42:42;;;;;;;6.57;2.92;;;;;;;12.79;79.60;100299.84;5062842;28;20103;-65
2021/08/04 03:45:08;;;;;;;6.00;2.88;;;;;;;12.97;79.26;100298.63;5062800;28;20100;-65
2021/08/04 03:47:34;;;;;;;8.77;2.70;;;;;;;13.18;79.67;100307.72;5062893;28;20025;-65
2021/08/04 03:49:59;;;;;;;11.65;2.53;;;;;;;13.40;79.51;100304.69;5063144;28;20032;-65
2021/08/04 03:52:25;;;;;;;8.75;3.28;;;;;;;13.60;79.02;100303.41;5066496;28;20053;-65
2021/08/04 03:54:50;;;;;;;4.75;2.17;;;;;;;13.85;78.86;100305.44;5066624;28;20493;-65
2021/08/04 03:57:16;;;;;;;5.88;2.10;;;;;;;14.15;78.83;100303.00;5066685;28;20017;-65
2021/08/04 03:59:41;;;;;;;8.15;2.60;;;;;;;14.46;78.02;100304.78;5066469;28;20093;-66
2021/08/04 04:02:06;;;;;;;4.50;2.17;;;;;;;14.68;77.10;100303.38;5065181;28;20021;-65
2021/08/04 04:04:32;;;;;;;6.80;2.38;;;;;;;14.89;76.18;100309.78;5066672;28;20056;-66
2021/08/04 04:06:57;;;;;;;5.68;1.90;;;;;;;15.10;75.96;100305.69;5066378;28;20028;-67
2021/08/04 04:09:23;;;;;;;3.88;2.17;;;;;;;15.41;74.98;100317.03;5066338;28;20049;-66
2021/08/04 04:11:48;;;;;;;6.10;1.90;;;;;;;15.61;73.52;100308.56;5066385;28;20017;-66
2021/08/04 04:14:13;;;;;;;3.45;1.95;;;;;;;15.71;71.95;100309.13;5066541;28;20050;-66
2021/08/04 04:16:39;;;;;;;6.97;1.90;;;;;;;15.90;71.60;100316.38;5066253;28;20024;-65
2021/08/04 04:19:04;;;;;;;5.50;1.90;;;;;;;16.06;70.63;100308.06;5066258;28;20088;-65
2021/08/04 04:21:31;;;;;;;4.13;1.63;;;;;;;16.25;69.48;100315.28;5064684;28;20051;-65
2021/08/04 04:23:56;;;;;;;3.88;1.63;;;;;;;16.53;69.42;100312.59;5066202;28;20048;-65
2021/08/04 04:26:22;;;;;;;4.03;2.00;;;;;;;16.95;68.57;100312.84;5066087;28;20385;-66
2021/08/04 04:28:47;;;;;;;2.58;1.60;;;;;;;17.37;67.95;100316.59;5066170;28;20032;-65
2021/08/04 04:31:13;;;;;;;4.88;1.92;;;;;;;17.75;65.13;100321.25;5064896;28;20025;-65
2021/08/04 04:33:38;;;;;;;6.00;2.38;;;;;;;17.92;64.10;100323.19;5065882;28;20032;-66
2021/08/04 04:36:04;;;;;;;3.80;1.60;;;;;;;18.10;63.57;100315.47;5065795;28;20036;-66
2021/08/04 04:38:29;;;;;;;3.47;1.95;;;;;;;18.53;63.63;100322.50;5064373;28;20048;-65
2021/08/04 04:40:55;;;;;;;5.07;1.92;;;;;;;19.18;62.45;100331.94;5065983;28;20539;-65
2021/08/04 04:43:20;;;;;;;3.63;1.52;;;;;;;19.90;60.74;100333.88;5065881;28;20017;-65
2021/08/04 04:45:47;;;;;;;5.38;1.50;;;;;;;20.40;57.33;100332.28;5065904;28;20048;-65
2021/08/04 04:48:13;;;;;;;3.35;1.50;;;;;;;20.47;56.28;100332.84;5065825;28;20021;-65
2021/08/04 04:50:38;;;;;;;2.47;1.50;;;;;;;20.64;55.31;100333.75;5064071;28;20087;-65
2021/08/04 04:53:04;;;;;;;5.32;1.60;;;;;;;20.93;55.48;100326.09;5065624;28;20020;-65
2021/08/04 04:55:29;;;;;;;3.35;1.55;;;;;;;21.63;53.82;100335.50;5065533;28;20118;-65
2021/08/04 04:57:54;;;;;;;3.08;1.45;;;;;;;22.32;52.59;100333.44;5064376;28;20025;-65
2021/08/04 05:00:20;;;;;;;2.50;1.23;;;;;;;23.18;50.88;100331.78;5065585;28;20020;-65
2021/08/04 05:02:45;;;;;;;7.95;1.67;;;;;;;23.75;48.84;100347.69;5064315;28;20024;-65
2021/08/04 05:05:11;;;;;;;4.18;1.90;;;;;;;24.20;47.91;100323.53;5064160;28;20021;-65
2021/08/04 05:07:36;;;;;;;2.88;1.33;;;;;;;24.73;46.42;100337.66;5065253;28;20089;-65
2021/08/04 05:10:02;;;;;;;6.55;1.90;;;;;;;25.20;44.85;100343.28;5065454;28;20040;-65
2021/08/04 05:12:28;;;;;;;3.92;1.52;;;;;;;25.43;44.21;100348.72;5064956;28;20013;-65
2021/08/04 05:14:53;;;;;;;5.00;1.52;;;;;;;25.40;42.90;100343.63;5063496;28;20397;-65
2021/08/04 05:17:19;;;;;;;2.45;1.25;;;;;;;25.07;42.89;100343.31;5064881;28;20085;-65
2021/08/04 05:19:44;;;;;;;5.50;1.52;;;;;;;24.90;43.46;100351.59;5064830;28;20052;-66
2021/08/04 05:22:10;;;;;;;5.10;1.50;;;;;;;24.83;43.07;100356.47;5064754;28;20090;-64
2021/08/04 05:24:35;;;;;;;3.47;1.50;;;;;;;24.78;43.03;100348.00;5064787;28;20025;-64
2021/08/04 05:27:01;;;;;;;3.08;1.27;;;;;;;24.82;43.06;100352.13;5064803;28;20033;-65
2021/08/04 05:29:26;;;;;;;4.20;1.73;;;;;;;24.63;42.75;100366.69;5063213;28;20336;-65
2021/08/04 05:31:52;;;;;;;3.97;1.40;;;;;;;24.54;42.59;100365.50;5064792;28;20028;-65
2021/08/04 05:34:17;;;;;;;6.15;1.55;;;;;;;24.57;42.74;100365.28;5064724;28;20060;-65
2021/08/04 05:36:43;;;;;;;3.65;1.48;;;;;;;24.56;42.64;100365.38;5064746;28;20049;-65
2021/08/04 05:39:09;;;;;;;4.57;1.52;;;;;;;24.65;42.10;100363.91;5064724;28;20153;-65
2021/08/04 05:41:34;;;;;;;3.13;1.40;;;;;;;24.75;41.99;100376.44;5064587;28;20405;-65
2021/08/04 05:44:00;;;;;;;4.57;1.48;;;;;;;24.96;41.67;100369.75;5064626;28;20163;-65
2021/08/04 05:46:25;;;;;;;4.75;2.00;;;;;;;25.23;41.20;100363.44;5064530;28;20021;-66
2021/08/04 05:48:51;;;;;;;3.83;1.60;;;;;;;25.57;40.88;100361.03;5064647;28;20088;-65
2021/08/04 05:51:16;;;;;;;5.63;1.17;;;;;;;25.81;40.20;100370.00;5062974;28;20027;-65
2021/08/04 05:53:41;;;;;;;5.10;1.67;;;;;;;25.93;40.10;100362.91;5064476;28;20025;-66
2021/08/04 05:56:07;;;;;;;3.35;1.23;;;;;;;26.36;39.17;100364.16;5064456;28;20069;-65
2021/08/04 05:58:32;;;;;;;6.70;1.80;;;;;;;26.95;38.60;100378.28;5064449;28;20036;-65
2021/08/04 06:00:57;;;;;;;4.93;2.00;;;;;;;27.44;37.91;100372.72;5064268;28;20025;-65
2021/08/04 06:03:23;;;;;;;7.03;1.38;;;;;;;27.52;37.00;100379.22;5064244;28;20350;-65
2021/08/04 06:05:48;;;;;;;3.92;1.67;;;;;;;27.36;36.87;100375.16;5064212;28;20135;-65
2021/08/04 06:08:13;;;;;;;4.50;1.50;;;;;;;26.92;37.30;100375.88;5064223;28;20024;-65
2021/08/04 06:10:39;;;;;;;3.83;1.40;;;;;;;26.85;37.34;100377.31;5064295;28;20021;-66
2021/08/04 06:13:04;;;;;;;2.42;1.20;;;;;;;26.81;37.51;100374.03;5063675;28;20029;-64
2021/08/04 06:15:29;;;;;;;2.50;1.58;;;;;;;26.56;37.79;100375.97;5064018;28;20084;-65
2021/08/04 06:17:55;;;;;;;2.13;1.15;;;;;;;26.75;38.25;100389.66;5064062;28;20025;-65
2021/08/04 06:20:20;;;;;;;2.45;1.40;;;;;;;27.09;37.39;100390.53;5064187;28;20499;-66
2021/08/04 06:22:45;;;;;;;3.00;1.48;;;;;;;27.17;37.26;100387.28;5063747;28;20023;-66
2021/08/04 06:25:11;;;;;;;3.88;1.40;;;;;;;27.64;37.11;100394.22;5064135;28;20059;-66
2021/08/04 06:27:37;;;;;;;3.83;1.65;;;;;;;28.06;36.25;100393.53;5063928;28;20056;-66
2021/08/04 06:30:03;;;;;;;4.18;2.00;;;;;;;28.28;35.76;100388.19;5063771;28;20021;-65
2021/08/04 06:32:28;;;;;;;3.15;1.13;;;;;;;28.84;34.81;100386.16;5063710;28;20025;-65
2021/08/04 06:34:53;;;;;;;6.05;1.55;;;;;;;29.24;34.18;100384.53;5063810;28;20048;-66
2021/08/04 06:37:19;;;;;;;3.95;1.70;;;;;;;29.49;33.34;100379.66;5063351;28;20094;-65
2021/08/04 06:39:44;;;;;;;2.70;1.58;;;;;;;29.80;32.61;100386.75;5063816;28;20059;-67
2021/08/04 06:42:09;;;;;;;5.95;1.50;;;;;;;29.81;32.70;100383.09;5063901;28;20044;-65
2021/08/04 06:44:35;;;;;;;6.22;1.38;;;;;;;29.96;32.62;100386.22;5063936;28;20058;-65
2021/08/04 06:47:00;;;;;;;4.25;1.67;;;;;;;30.10;32.42;100386.78;5063707;28;20385;-65
2021/08/04 06:49:26;;;;;;;4.93;1.50;;;;;;;30.21;31.64;100385.81;5063358;28;20048;-66
2021/08/04 06:51:51;;;;;;;6.18;1.60;;;;;;;30.20;31.21;100376.06;5063280;28;20092;-65
2021/08/04 06:54:16;;;;;;;3.63;1.88;;;;;;;30.28;31.38;100378.88;5063565;28;20080;-65
2021/08/04 06:56:42;;;;;;;4.20;1.67;;;;;;;30.22;31.01;100383.00;5063441;28;20085;-66
2021/08/04 06:59:08;;;;;;;6.03;1.67;;;;;;;30.52;30.61;100381.09;5063486;28;20031;-65
2021/08/04 07:01:33;;;;;;;4.03;1.38;;;;;;;30.64;30.12;100381.75;5061992;28;20029;-64
2021/08/04 07:03:58;;;;;;;4.05;1.55;;;;;;;30.91;30.05;100392.72;5063302;28;20021;-65
2021/08/04 07:06:24;;;;;;;8.05;1.92;;;;;;;30.84;29.89;100389.78;5063279;28;20038;-65
2021/08/04 07:08:49;;;;;;;9.30;2.08;;;;;;;30.57;30.02;100383.34;5063363;28;20041;-65
2021/08/04 07:11:15;;;;;;;5.15;1.80;;;;;;;30.63;30.10;100384.59;5063145;28;20044;-65
2021/08/04 07:13:40;;;;;;;4.70;1.70;;;;;;;30.86;29.89;100385.13;5063104;28;20028;-67
2021/08/04 07:16:06;;;;;;;5.35;1.60;;;;;;;31.09;29.64;100384.72;5063329;28;20057;-69
2021/08/04 07:18:32;;;;;;;5.47;1.55;;;;;;;31.31;28.82;100382.66;5063257;28;20040;-68
2021/08/04 07:20:57;;;;;;;4.72;1.42;;;;;;;31.20;28.83;100380.97;5063112;28;20025;-68
2021/08/04 07:23:23;;;;;;;3.70;1.63;;;;;;;31.15;28.73;100383.28;5063184;28;20013;-68
2021/08/04 07:25:48;;;;;;;9.07;1.63;;;;;;;31.12;28.71;100384.41;5064802;28;20067;-69
2021/08/04 07:28:14;;;;;;;7.50;2.03;;;;;;;31.26;28.66;100379.56;5066255;28;20055;-73
2021/08/04 07:30:40;;;;;;;6.25;1.75;;;;;;;30.96;28.18;100390.41;5066376;28;20017;-70
2021/08/04 07:33:05;;;;;;;5.47;1.50;;;;;;;30.61;28.25;100391.94;5067201;28;20350;-67
2021/08/04 07:35:31;;;;;;;9.57;1.90;;;;;;;30.07;28.60;100393.25;5067221;28;20025;-74
2021/08/04 07:37:56;;;;;;;4.45;1.58;;;;;;;29.05;29.05;100398.66;5066493;28;20049;-74
2021/08/04 07:40:22;;;;;;;4.38;1.50;;;;;;;27.66;30.84;100391.44;5066072;28;20040;-70
2021/08/04 07:42:49;;;;;;;5.75;1.83;;;;;;;26.08;33.30;100400.81;5066222;28;20017;-72
2021/08/04 07:45:18;;;;;;;4.50;1.38;;;;;;;25.11;35.31;100410.34;5065878;28;20021;-67
2021/08/04 07:47:44;;;;;;;5.30;1.42;;;;;;;25.18;36.24;100400.97;5066683;28;20029;-74
2021/08/04 07:50:13;;;;;;;6.03;1.70;;;;;;;25.73;36.38;100403.31;5066935;28;20046;-63
2021/08/04 07:52:39;;;;;;;5.20;1.70;;;;;;;26.47;35.64;100401.47;5066635;28;20085;-69
2021/08/04 07:55:06;;;;;;;3.88;1.60;;;;;;;27.13;33.56;100400.94;5066883;28;20080;-64
2021/08/04 07:57:32;;;;;;;6.22;1.60;;;;;;;27.14;33.58;100403.50;5066671;28;20487;-64
2021/08/04 07:59:57;;;;;;;5.97;1.42;;;;;;;27.38;33.61;100401.69;5065438;28;20032;-64
2021/08/04 08:02:23;;;;;;;4.20;1.48;;;;;;;27.47;33.20;100404.47;5066644;28;20017;-64
2021/08/04 08:04:48;;;;;;;8.70;1.77;;;;;;;27.15;32.79;100405.22;5066638;28;20047;-65
2021/08/04 08:07:14;;;;;;;4.65;1.35;;;;;;;26.47;33.46;100405.97;5066003;28;20024;-66
2021/08/04 08:09:39;;;;;;;4.22;1.75;;;;;;;26.14;34.37;100410.13;5066234;28;20418;-66
2021/08/04 08:12:07;;;;;;;6.68;2.05;;;;;;;25.93;34.61;100400.13;5066162;28;20025;-65
2021/08/04 08:14:32;;;;;;;7.70;1.77;;;;;;;25.78;35.72;100407.44;5066620;28;20021;-66
2021/08/04 08:16:58;;;;;;;7.55;1.92;;;;;;;26.42;34.92;100400.94;5065242;28;20060;-66
2021/08/04 08:19:23;;;;;;;6.03;1.85;;;;;;;27.30;33.89;100402.28;5066342;28;20024;-66
2021/08/04 08:21:49;;;;;;;4.32;1.40;;;;;;;28.00;32.00;100404.72;5066068;28;20021;-65
2021/08/04 08:24:15;;;;;;;4.60;1.55;;;;;;;27.99;31.51;100396.84;5066455;28;20017;-66
2021/08/04 08:26:40;;;;;;;6.72;1.58;;;;;;;27.89;32.07;100402.94;5066236;28;20032;-66
2021/08/04 08:29:07;;;;;;;6.28;1.98;;;;;;;28.19;32.17;100408.50;5066520;28;20511;-66
2021/08/04 08:31:34;;;;;;;3.22;1.23;;;;;;;28.99;31.52;100404.53;5066086;28;20166;-65
2021/08/04 08:34:00;;;;;;;10.25;1.55;;;;;;;29.39;30.40;100390.34;5065956;28;20024;-65
2021/08/04 08:36:33;;;;;;;4.35;1.65;;;;;;;29.02;30.50;100407.81;5065913;28;20029;-66
2021/08/04 08:38:59;;;;;;;4.65;1.75;;;;;;;29.18;30.62;100409.13;5065964;28;20052;-65
2021/08/04 08:41:26;;;;;;;5.30;1.23;;;;;;;30.11;29.61;100399.16;5065953;28;20025;-66
2021/08/04 08:43:52;;;;;;;5.43;1.30;;;;;;;31.02;27.95;100397.03;5065762;28;20104;-66
2021/08/04 08:46:17;;;;;;;8.20;1.75;;;;;;;31.89;27.41;100399.34;5065720;28;20445;-65
2021/08/04 08:48:47;;;;;;;9.10;1.85;;;;;;;32.29;26.72;100404.38;5065684;28;20028;-66
2021/08/04 08:51:16;;;;;;;5.15;1.60;;;;;;;32.68;26.71;100407.69;5065711;28;20104;-65
2021/08/04 08:53:42;;;;;;;5.13;1.42;;;;;;;33.01;25.84;100413.25;5064033;28;20028;-66
2021/08/04 08:56:07;;;;;;;5.90;1.85;;;;;;;32.88;25.87;100409.16;5065624;28;20354;-66
2021/08/04 08:58:32;;;;;;;8.73;1.65;;;;;;;31.80;26.42;100413.69;5064222;28;20166;-66
2021/08/04 09:00:58;;;;;;;9.50;1.90;;;;;;;30.52;27.91;100409.72;5065519;28;20029;-65
2021/08/04 09:03:23;;;;;;;5.45;1.83;;;;;;;29.84;29.32;100417.63;5065428;28;20484;-66
2021/08/04 09:05:51;;;;;;;7.85;1.77;;;;;;;29.51;29.74;100416.94;5065214;28;20024;-66
2021/08/04 09:08:31;;;;;;;5.13;1.88;;;;;;;28.69;31.13;100421.22;5065418;28;20081;-66
2021/08/04 09:11:09;;;;;;;5.60;1.60;;;;;;;28.63;31.41;100423.59;5065235;28;20032;-66
2021/08/04 09:13:35;;;;;;;7.20;1.60;;;;;;;27.87;32.47;100425.34;5065253;28;20512;-66
2021/08/04 09:16:07;;;;;;;5.25;1.55;;;;;;;26.90;33.64;100431.06;5065415;28;20461;-66
2021/08/04 09:18:42;;;;;;;5.85;1.85;;;;;;;26.04;34.72;100425.97;5065069;28;20017;-66
2021/08/04 09:21:07;;;;;;;5.38;2.22;;;;;;;25.37;36.19;100423.56;5065054;28;20584;-66
2021/08/04 09:23:43;;;;;;;4.78;1.85;;;;;;;24.62;37.50;100423.34;5065198;28;20348;-65
2021/08/04 09:26:20;;;;;;;4.85;1.50;;;;;;;24.37;38.88;100431.16;5065349;28;20028;-66
2021/08/04 09:29:06;;;;;;;3.95;1.50;;;;;;;24.21;38.72;100433.13;5065064;28;20385;-66
2021/08/04 09:31:51;;;;;;;8.43;1.80;;;;;;;23.92;39.58;100428.75;5065003;28;20039;-65
2021/08/04 09:34:35;;;;;;;6.07;1.60;;;;;;;23.97;40.56;100431.97;5064977;28;20025;-65
2021/08/04 09:37:12;;;;;;;6.40;1.48;;;;;;;25.06;39.56;100436.38;5064678;28;20051;-65
2021/08/04 09:39:44;;;;;;;5.22;1.52;;;;;;;25.59;38.61;100428.19;5064915;28;20021;-65
2021/08/04 09:42:10;;;;;;;;;;;;;;;26.10;38.07;100436.13;5065182;28;20090;-66
2021/08/04 09:44:53;;;;;;;4.88;1.60;;;;;;;27.29;35.59;100432.56;5064724;28;19909;-65
2021/08/04 09:47:18;;;;;;;7.00;1.58;;;;;;;28.30;33.74;100431.63;5064734;28;20021;-66
2021/08/04 09:50:07;;;;;;;4.30;1.65;;;;;;;28.99;32.34;100425.91;5064066;28;20041;-66
2021/08/04 09:52:33;;;;;;;6.07;1.30;;;;;;;29.57;31.65;100427.09;5060921;28;20397;-66
2021/08/04 09:55:16;;;;;;;5.30;1.48;;;;;;;30.14;31.12;100426.50;5064748;28;20021;-66
2021/08/04 09:57:47;;;;;;;4.78;1.58;;;;;;;29.56;31.09;100420.91;5064537;28;20025;-66
2021/08/04 10:00:14;;;;;;;5.27;1.47;;;;;;;28.59;32.64;100428.34;5064437;28;20031;-66
2021/08/04 10:02:40;;;;;;;5.88;1.60;;;;;;;27.65;33.60;100427.94;5064407;28;20074;-66
2021/08/04 10:05:24;;;;;;;4.43;1.15;;;;;;;26.70;35.47;100428.13;5064451;28;20069;-66
2021/08/04 10:08:04;;;;;;;7.35;1.67;;;;;;;25.84;36.59;100430.91;5064310;28;20076;-66
2021/08/04 10:10:43;;;;;;;4.97;1.60;;;;;;;25.05;38.27;100439.97;5064061;28;20492;-66
2021/08/04 10:13:12;;;;;;;6.25;1.70;;;;;;;24.37;39.87;100441.78;5064140;28;20028;-65
2021/08/04 10:15:43;;;;;;;4.80;1.45;;;;;;;24.95;39.81;100443.25;5064266;28;20055;-66
2021/08/04 10:18:15;;;;;;;5.88;1.70;;;;;;;25.06;39.35;100445.19;5064342;28;20021;-66
2021/08/04 10:20:40;;;;;;;6.50;2.20;;;;;;;24.54;39.68;100439.78;5064249;28;20389;-65
2021/08/04 10:23:08;;;;;;;7.53;2.33;;;;;;;24.04;40.64;100439.50;5064039;28;20036;-65
2021/08/04 10:25:34;;;;;;;5.55;1.80;;;;;;;23.72;41.64;100438.81;5063985;28;20020;-65
2021/08/04 10:28:06;;;;;;;4.22;1.48;;;;;;;23.60;41.88;100439.59;5063980;28;20028;-65
2021/08/04 10:30:32;;;;;;;3.72;1.50;;;;;;;23.55;42.46;100436.41;5063770;28;20425;-65
2021/08/04 10:32:58;;;;;;;8.45;1.85;;;;;;;24.20;41.28;100444.69;5063717;28;20112;-66
2021/08/04 10:35:24;;;;;;;5.82;1.58;;;;;;;24.57;40.72;100441.41;5063693;28;20032;-66
2021/08/04 10:37:52;;;;;;;6.18;1.67;;;;;;;25.58;39.29;100431.81;5063620;28;20052;-66
2021/08/04 10:40:17;;;;;;;8.40;1.42;;;;;;;26.17;37.67;100434.72;5063762;28;20090;-65
2021/08/04 10:42:45;;;;;;;5.07;1.48;;;;;;;26.30;37.32;100431.97;5063703;28;20017;-66
2021/08/04 10:45:23;;;;;;;6.88;1.45;;;;;;;27.03;37.18;100433.66;5063688;28;20036;-66
2021/08/04 10:47:56;;;;;;;5.15;1.60;;;;;;;27.74;35.47;100426.34;5063738;28;20233;-66
2021/08/04 10:50:22;;;;;;;4.30;1.60;;;;;;;28.69;33.81;100431.09;5063822;28;20025;-66
2021/08/04 10:52:56;;;;;;;5.68;1.42;;;;;;;28.97;32.70;100434.06;5063446;28;20135;-67
2021/08/04 10:55:22;;;;;;;7.13;2.17;;;;;;;28.28;33.20;100433.56;5063383;28;20025;-67
2021/08/04 10:58:05;;;;;;;4.38;1.50;;;;;;;27.44;34.78;100428.69;5063398;28;20024;-66
2021/08/04 11:00:34;;;;;;;6.60;1.92;;;;;;;26.47;35.52;100438.72;5063470;28;20021;-66
2021/08/04 11:03:00;;;;;;;5.18;1.55;;;;;;;25.56;37.14;100444.34;5063643;28;20025;-66
2021/08/04 11:06:04;;;;;;;6.57;1.63;;;;;;;24.50;39.02;100436.50;5063238;28;20053;-66
2021/08/04 11:08:29;;;;;;;11.15;1.80;;;;;;;23.69;41.30;100440.84;5063132;28;20036;-66
2021/08/04 11:10:55;;;;;;;6.25;2.10;;;;;;;23.34;42.08;100436.78;5063232;28;20080;-66
2021/08/04 11:13:44;;;;;;;7.07;1.67;;;;;;;23.05;42.75;100436.78;5063332;28;20025;-66
2021/08/04 11:16:29;;;;;;;5.88;1.75;;;;;;;22.85;43.04;100436.16;5063384;28;20090;-65
2021/08/04 11:19:07;;;;;;;8.00;1.92;;;;;;;22.53;43.63;100437.09;5063227;28;20020;-65
2021/08/04 11:21:34;;;;;;;4.40;1.73;;;;;;;22.37;43.94;100443.28;5062981;28;20025;-66
2021/08/04 11:24:00;;;;;;;6.63;2.03;;;;;;;22.20;44.81;100435.47;5062913;28;20021;-66
2021/08/04 11:26:37;;;;;;;4.65;1.67;;;;;;;22.03;45.41;100440.78;5062632;28;20024;-65
2021/08/04 11:29:03;;;;;;;5.65;1.60;;;;;;;22.12;45.86;100441.22;5062097;28;20035;-66